Time;durP1;ratioP1;P1;durP2;ratioP2;P2;SDS_P1;SDS_P2;PMS_P1;PMS_P2;Temp;Humidity;BMP_temperature;BMP_pressure;BME280_temperature;BME280_humidity;BME280_pressure;Samples;Min_cycle;Max_cycle;Signal;HPM_P1;HPM_P2
2023/01/24 00:00:41;;;;;;;10.35;7.00;;;;;;;15.01;46.98;100359.97;4974564;28;20051;-77
2023/01/24 00:03:11;;;;;;;9.63;6.43;;;;;;;14.98;46.87;100349.56;4979883;28;20025;-78
2023/01/24 00:05:38;;;;;;;9.75;6.70;;;;;;;15.01;46.86;100353.88;4994419;28;20022;-77
2023/01/24 00:08:03;;;;;;;9.20;6.80;;;;;;;14.99;47.05;100353.03;4994406;28;20022;-78
2023/01/24 00:10:29;;;;;;;9.43;7.05;;;;;;;14.99;46.83;100353.91;4993548;28;20141;-78
2023/01/24 00:12:55;;;;;;;8.23;6.43;;;;;;;14.98;46.81;100357.44;4980120;28;20100;-78
2023/01/24 00:15:20;;;;;;;9.10;5.93;;;;;;;14.98;46.94;100357.44;4995426;28;20033;-77
2023/01/24 00:17:45;;;;;;;9.10;7.00;;;;;;;14.97;47.12;100366.19;4996784;28;20462;-78
2023/01/24 00:20:11;;;;;;;8.82;6.65;;;;;;;14.97;46.84;100360.94;4994865;28;20042;-77
2023/01/24 00:22:37;;;;;;;9.38;6.80;;;;;;;14.98;46.79;100361.81;4993578;28;20030;-78
2023/01/24 00:25:02;;;;;;;8.38;6.28;;;;;;;14.95;46.78;100362.75;4993542;28;20414;-78
2023/01/24 00:27:31;;;;;;;8.73;6.07;;;;;;;14.94;46.74;100368.91;4991982;28;20484;-77
2023/01/24 00:29:57;;;;;;;8.65;6.13;;;;;;;14.95;46.99;100362.75;4993704;28;20086;-77
2023/01/24 00:32:22;;;;;;;10.07;7.05;;;;;;;14.92;46.87;100359.31;4993537;28;20153;-76
2023/01/24 00:34:47;;;;;;;8.20;6.63;;;;;;;14.93;46.92;100369.81;4974991;28;20023;-78
2023/01/24 00:37:13;;;;;;;8.45;6.00;;;;;;;14.92;46.73;100362.81;4974071;28;20507;-77
2023/01/24 00:39:38;;;;;;;8.80;6.53;;;;;;;14.95;47.00;100378.50;4974031;28;20034;-78
2023/01/24 00:42:04;;;;;;;9.38;6.82;;;;;;;14.94;46.92;100366.28;4972652;28;20041;-78
2023/01/24 00:44:29;;;;;;;9.63;6.60;;;;;;;14.94;46.90;100371.53;4988351;28;20031;-77
2023/01/24 00:46:55;;;;;;;8.55;6.60;;;;;;;14.94;46.91;100378.53;4992072;28;20042;-77
2023/01/24 00:49:20;;;;;;;9.73;7.05;;;;;;;14.95;46.96;100377.63;4992913;28;20037;-77
2023/01/24 00:51:45;;;;;;;8.98;6.40;;;;;;;14.94;46.96;100379.41;4993289;28;20045;-78
2023/01/24 00:54:11;;;;;;;8.13;6.22;;;;;;;14.90;46.94;100385.63;4979005;28;20031;-77
2023/01/24 00:56:36;;;;;;;9.00;7.00;;;;;;;14.90;46.74;100383.88;4972556;28;20043;-78
2023/01/24 00:59:02;;;;;;;9.38;6.78;;;;;;;14.92;46.81;100382.97;4973571;28;20081;-78
2023/01/24 01:01:27;;;;;;;8.82;6.13;;;;;;;14.92;46.79;100378.59;4973730;28;20027;-77
2023/01/24 01:03:57;;;;;;;8.73;6.50;;;;;;;14.93;46.70;100376.81;4983864;28;20034;-78
2023/01/24 01:06:24;;;;;;;8.55;6.20;;;;;;;14.89;46.82;100376.91;4993233;28;20031;-77
2023/01/24 01:08:49;;;;;;;7.78;6.28;;;;;;;14.90;46.73;100380.38;4989813;28;20033;-77
2023/01/24 01:11:15;;;;;;;9.10;6.05;;;;;;;14.91;46.87;100379.47;4985900;28;20039;-78
2023/01/24 01:13:40;;;;;;;8.73;5.72;;;;;;;14.89;46.65;100386.53;4982070;28;20431;-78
2023/01/24 01:16:10;;;;;;;8.07;5.35;;;;;;;14.90;46.89;100383.00;4993015;28;20076;-77
2023/01/24 01:18:37;;;;;;;8.82;5.93;;;;;;;14.89;46.94;100390.03;4993145;28;20034;-78
2023/01/24 01:21:03;;;;;;;7.50;5.82;;;;;;;14.88;46.66;100382.19;4992926;28;20081;-78
2023/01/24 01:23:29;;;;;;;8.40;5.75;;;;;;;14.91;46.83;100384.72;4992870;28;20105;-78
2023/01/24 01:26:03;;;;;;;8.65;6.22;;;;;;;14.88;46.58;100382.19;4993035;28;20475;-77
2023/01/24 01:28:30;;;;;;;8.93;6.10;;;;;;;14.87;46.81;100383.09;4993036;28;20511;-78
2023/01/24 01:30:55;;;;;;;9.18;6.20;;;;;;;14.87;46.92;100396.22;4992656;28;20026;-78
2023/01/24 01:33:22;;;;;;;8.98;6.35;;;;;;;14.87;46.45;100390.97;4987172;28;20109;-77
2023/01/24 01:35:49;;;;;;;8.18;5.95;;;;;;;14.87;46.82;100404.09;4972392;28;20552;-77
2023/01/24 01:38:14;;;;;;;9.85;6.35;;;;;;;14.85;46.74;100396.25;4972263;28;20027;-77
2023/01/24 01:40:40;;;;;;;8.25;6.22;;;;;;;14.84;46.89;100398.91;4976279;28;20101;-77
2023/01/24 01:43:15;;;;;;;9.55;6.20;;;;;;;14.86;46.80;100391.84;4980383;28;20029;-78
2023/01/24 01:46:04;;;;;;;7.80;5.90;;;;;;;14.89;46.49;100394.41;4995191;28;20022;-79
2023/01/24 01:48:42;;;;;;;8.13;6.22;;;;;;;14.85;46.75;100387.47;4995615;28;20027;-78
2023/01/24 01:51:16;;;;;;;8.85;6.60;;;;;;;14.85;46.63;100392.75;4995545;28;20022;-78
2023/01/24 01:54:05;;;;;;;8.50;6.13;;;;;;;14.85;46.69;100391.00;4988888;28;20023;-78
2023/01/24 01:56:50;;;;;;;9.45;7.10;;;;;;;14.85;46.65;100395.38;4969833;28;20058;-78
2023/01/24 01:59:27;;;;;;;9.18;6.47;;;;;;;14.82;46.67;100387.56;4976528;28;20042;-78
2023/01/24 02:01:57;;;;;;;8.13;6.25;;;;;;;14.85;46.70;100382.22;4976411;28;20027;-78
2023/01/24 02:04:28;;;;;;;7.88;5.78;;;;;;;14.84;46.69;100385.75;4990061;28;20022;-77
2023/01/24 02:07:10;;;;;;;8.50;6.78;;;;;;;14.83;46.76;100405.06;4996325;28;20050;-78
2023/01/24 02:09:45;;;;;;;8.23;6.22;;;;;;;14.83;46.68;100389.28;4996053;28;20026;-78
2023/01/24 02:12:15;;;;;;;7.18;5.43;;;;;;;14.83;46.67;100400.69;4981377;28;20029;-78
2023/01/24 02:17:25;;;;;;;7.05;5.65;;;;;;;14.81;46.65;100389.31;4996304;28;20088;-77
2023/01/24 02:20:46;;;;;;;7.70;5.20;;;;;;;14.81;46.65;100396.34;4996046;28;20443;-78
2023/01/24 02:23:26;;;;;;;8.32;5.70;;;;;;;14.80;46.85;100397.22;4975315;28;20043;-78
2023/01/24 02:26:12;;;;;;;9.32;5.93;;;;;;;14.77;46.73;100396.38;4977603;28;20027;-78
2023/01/24 02:28:42;;;;;;;7.97;5.73;;;;;;;14.82;46.63;100392.81;4982881;28;20035;-78
2023/01/24 02:31:07;;;;;;;7.75;5.72;;;;;;;14.80;46.58;100391.97;4982209;28;20417;-79
2023/01/24 02:33:33;;;;;;;8.93;6.15;;;;;;;14.76;46.69;100393.78;4989540;28;20113;-78
2023/01/24 02:36:27;;;;;;;8.10;6.05;;;;;;;14.76;46.69;100399.91;5003756;28;20368;-78
2023/01/24 02:38:59;;;;;;;8.93;6.22;;;;;;;14.76;46.60;100389.41;4994613;28;20096;-78
2023/01/24 02:41:30;;;;;;;8.13;5.80;;;;;;;14.78;46.86;100386.75;4996901;28;20030;-77
2023/01/24 02:44:01;;;;;;;7.75;5.97;;;;;;;14.77;46.61;100385.88;4998114;28;20077;-78
2023/01/24 02:46:29;;;;;;;7.68;5.78;;;;;;;14.76;46.60;100388.53;4997206;28;20034;-77
2023/01/24 02:48:55;;;;;;;8.18;6.20;;;;;;;14.76;46.51;100389.41;4996721;28;20105;-78
2023/01/24 02:54:04;;;;;;;8.43;6.05;;;;;;;14.75;46.55;100387.69;4986306;28;20054;-77
2023/01/24 02:59:14;;;;;;;8.80;6.20;;;;;;;14.75;46.51;100392.94;4976396;28;20046;-77
2023/01/24 03:01:39;;;;;;;7.20;5.55;;;;;;;14.76;46.75;100388.53;4976497;28;20023;-78
2023/01/24 03:04:04;;;;;;;7.65;6.10;;;;;;;14.75;46.61;100398.19;4986560;28;20088;-77
2023/01/24 03:06:30;;;;;;;7.63;5.88;;;;;;;14.72;46.60;100398.22;4994451;28;20022;-78
2023/01/24 03:08:55;;;;;;;8.25;6.05;;;;;;;14.74;46.66;100412.22;4995385;28;20022;-77
2023/01/24 03:11:21;;;;;;;8.07;6.20;;;;;;;14.75;46.65;100421.84;4987471;28;20082;-77
2023/01/24 03:35:53;;;;;;;7.38;5.57;;;;;;;14.69;46.85;100414.03;4975664;28;20085;-78
2023/01/24 03:41:05;;;;;;;7.38;5.95;;;;;;;14.71;46.63;100417.50;4974992;28;20097;-77
2023/01/24 03:43:32;;;;;;;7.65;5.47;;;;;;;14.69;46.59;100408.78;4979656;28;20026;-77
2023/01/24 03:45:57;;;;;;;8.02;5.78;;;;;;;14.70;46.65;100409.63;4994280;28;20023;-78
2023/01/24 03:48:26;;;;;;;7.85;5.82;;;;;;;14.71;46.46;100422.75;4994434;28;20407;-78
2023/01/24 03:53:37;;;;;;;8.10;6.20;;;;;;;14.70;46.73;100400.00;4988821;28;20085;-78
2023/01/24 03:56:03;;;;;;;7.78;5.97;;;;;;;14.71;46.47;100404.38;4973341;28;20121;-77
2023/01/24 03:58:30;;;;;;;8.40;6.00;;;;;;;14.68;46.48;100395.69;4974532;28;20022;-77
2023/01/24 04:00:56;;;;;;;7.38;5.50;;;;;;;14.67;46.49;100386.91;4973253;28;20034;-77
2023/01/24 04:03:22;;;;;;;7.40;5.88;;;;;;;14.69;47.00;100385.16;4977273;28;20030;-78
2023/01/24 04:05:48;;;;;;;7.07;5.40;;;;;;;14.68;46.59;100386.00;4994196;28;20038;-77
2023/01/24 04:08:13;;;;;;;7.80;6.00;;;;;;;14.69;46.67;100386.91;4994176;28;20038;-78
2023/01/24 04:10:39;;;;;;;9.30;6.28;;;;;;;14.66;46.51;100381.72;4991316;28;20089;-78
2023/01/24 04:13:05;;;;;;;7.95;6.10;;;;;;;14.68;46.41;100380.75;4975465;28;20027;-78
2023/01/24 04:15:32;;;;;;;7.88;5.68;;;;;;;14.67;46.72;100381.66;4992501;28;20026;-78
2023/01/24 04:17:59;;;;;;;7.18;5.25;;;;;;;14.68;46.57;100386.00;4993947;28;20614;-78
2023/01/24 04:20:28;;;;;;;8.35;5.85;;;;;;;14.69;46.64;100382.53;4992284;28;20500;-78
2023/01/24 04:22:53;;;;;;;7.47;5.38;;;;;;;14.68;46.43;100386.00;4993749;28;20030;-78
2023/01/24 04:25:19;;;;;;;7.85;5.53;;;;;;;14.65;46.51;100372.97;4993317;28;20049;-77
2023/01/24 04:27:45;;;;;;;6.90;5.15;;;;;;;14.67;46.53;100368.53;4992551;28;20023;-78
2023/01/24 04:30:12;;;;;;;7.13;5.07;;;;;;;14.64;46.41;100373.84;4994458;28;20534;-78
2023/01/24 04:32:38;;;;;;;7.22;5.70;;;;;;;14.65;46.54;100380.84;4994837;28;20086;-78
2023/01/24 04:35:04;;;;;;;6.72;5.40;;;;;;;14.68;46.72;100382.53;4977138;28;20105;-78
2023/01/24 04:37:31;;;;;;;8.52;5.88;;;;;;;14.63;46.51;100382.66;4974041;28;20554;-78
2023/01/24 04:39:57;;;;;;;7.18;5.65;;;;;;;14.63;46.63;100380.00;4973746;28;20362;-77
2023/01/24 04:42:22;;;;;;;7.60;5.57;;;;;;;14.65;46.76;100391.34;4974063;28;20038;-77
2023/01/24 04:44:48;;;;;;;6.97;5.53;;;;;;;14.63;46.53;100399.25;4988197;28;20116;-77
2023/01/24 04:47:13;;;;;;;7.50;5.75;;;;;;;14.65;46.38;100396.59;4993526;28;20026;-78
2023/01/24 04:49:41;;;;;;;7.75;5.50;;;;;;;14.64;46.45;100400.97;4993318;28;20027;-78
2023/01/24 04:52:10;;;;;;;7.88;5.75;;;;;;;14.64;46.59;100405.38;4993364;28;20028;-77
2023/01/24 04:54:35;;;;;;;7.78;5.05;;;;;;;14.62;46.67;100407.16;4980220;28;20121;-78
2023/01/24 04:57:01;;;;;;;6.93;5.35;;;;;;;14.61;46.31;100400.19;4973820;28;20058;-77
2023/01/24 04:59:26;;;;;;;7.90;5.82;;;;;;;14.61;46.41;100403.69;4973652;28;20074;-78
2023/01/24 05:01:52;;;;;;;7.13;5.30;;;;;;;14.61;46.49;100408.06;4973751;28;20034;-78
2023/01/24 05:04:17;;;;;;;7.88;5.50;;;;;;;14.61;46.66;100410.69;4983688;28;20033;-77
2023/01/24 05:06:43;;;;;;;7.05;5.65;;;;;;;14.60;46.46;100414.22;4993277;28;20113;-78
2023/01/24 05:09:08;;;;;;;6.95;5.30;;;;;;;14.60;46.65;100408.97;4992852;28;20109;-78
2023/01/24 05:11:35;;;;;;;7.47;5.85;;;;;;;14.60;46.62;100419.47;4983106;28;20037;-77
2023/01/24 05:14:01;;;;;;;8.00;5.65;;;;;;;14.60;46.41;100408.97;4985842;28;20022;-77
2023/01/24 05:16:26;;;;;;;7.85;5.63;;;;;;;14.58;46.31;100400.25;4997161;28;20032;-78
2023/01/24 05:18:52;;;;;;;8.45;5.93;;;;;;;14.57;46.38;100398.53;4997006;28;20046;-78
2023/01/24 05:21:18;;;;;;;7.63;5.47;;;;;;;14.60;46.72;100401.06;4997261;28;20030;-77
2023/01/24 05:23:49;;;;;;;7.88;5.35;;;;;;;14.60;46.71;100419.47;4996403;28;20030;-77
2023/01/24 05:26:14;;;;;;;7.22;5.55;;;;;;;14.58;46.58;100411.59;4996919;28;20109;-77
2023/01/24 05:28:40;;;;;;;7.10;5.35;;;;;;;14.61;46.46;100415.94;4997097;28;20105;-77
2023/01/24 05:31:08;;;;;;;7.60;5.38;;;;;;;14.59;46.57;100434.34;4996966;28;20034;-77
2023/01/24 05:33:34;;;;;;;7.03;5.03;;;;;;;14.59;46.41;100423.84;4993059;28;20019;-77
2023/01/24 05:36:01;;;;;;;8.02;5.57;;;;;;;14.58;46.36;100432.63;4977364;28;20027;-78
2023/01/24 05:38:27;;;;;;;7.00;5.15;;;;;;;14.58;46.49;100437.03;4976919;28;20035;-77
2023/01/24 05:40:52;;;;;;;8.15;5.93;;;;;;;14.57;46.62;100440.56;4977185;28;20053;-78
2023/01/24 05:43:18;;;;;;;7.35;5.30;;;;;;;14.57;46.55;100441.41;4978694;28;20054;-77
2023/01/24 05:45:43;;;;;;;7.95;6.18;;;;;;;14.55;46.38;100437.06;4996584;28;20034;-78
2023/01/24 05:48:09;;;;;;;7.00;4.97;;;;;;;14.56;46.41;100441.41;4996664;28;20026;-77
2023/01/24 05:50:35;;;;;;;8.10;5.22;;;;;;;14.56;46.36;100449.31;4995371;28;20027;-77
2023/01/24 05:53:02;;;;;;;7.95;5.47;;;;;;;14.57;46.31;100451.06;4996067;28;20476;-78
2023/01/24 05:55:27;;;;;;;7.35;5.03;;;;;;;14.57;46.40;100457.16;4977476;28;20027;-78
2023/01/24 05:57:53;;;;;;;7.35;5.40;;;;;;;14.59;46.68;100462.41;4975956;28;20030;-78
2023/01/24 06:00:19;;;;;;;7.18;5.43;;;;;;;14.55;46.62;100463.34;4976780;28;20039;-78
2023/01/24 06:02:44;;;;;;;7.70;4.95;;;;;;;14.55;46.30;100455.44;4978079;28;20126;-78
2023/01/24 06:05:09;;;;;;;8.15;5.70;;;;;;;14.56;46.44;100459.81;4992855;28;20504;-77
2023/01/24 06:07:35;;;;;;;7.43;5.38;;;;;;;14.54;46.36;100462.47;4995967;28;20109;-76
2023/01/24 06:10:00;;;;;;;7.40;5.63;;;;;;;14.52;46.21;100460.78;4996113;28;20538;-77
2023/01/24 06:12:26;;;;;;;7.95;5.90;;;;;;;14.56;46.44;100465.06;4978186;28;20023;-77
2023/01/24 06:14:51;;;;;;;7.85;5.50;;;;;;;14.53;46.37;100465.13;4988730;28;20076;-77
2023/01/24 06:17:17;;;;;;;8.27;5.63;;;;;;;14.53;46.42;100462.50;4996192;28;20097;-78
2023/01/24 06:19:42;;;;;;;6.95;5.35;;;;;;;14.54;46.26;100466.84;4995873;28;20029;-77
2023/01/24 06:22:27;;;;;;;6.45;4.95;;;;;;;14.50;46.75;100472.16;4994585;28;20077;-78
2023/01/24 06:24:53;;;;;;;6.90;5.90;;;;;;;14.52;46.41;100479.16;4995216;28;20057;-77
2023/01/24 06:27:19;;;;;;;8.30;6.18;;;;;;;14.49;46.24;100473.06;4995783;28;20030;-78
2023/01/24 06:29:44;;;;;;;6.85;5.05;;;;;;;14.50;46.35;100472.16;4995901;28;20023;-78
2023/01/24 06:32:52;;;;;;;7.93;5.50;;;;;;;14.50;46.49;100480.03;4995804;28;20042;-77
2023/01/24 06:35:22;;;;;;;7.03;5.05;;;;;;;14.49;46.34;100478.31;4978693;28;20027;-77
2023/01/24 06:37:52;;;;;;;7.28;5.28;;;;;;;14.49;46.21;100475.69;4976355;28;20484;-78
2023/01/24 06:40:22;;;;;;;8.15;5.57;;;;;;;14.50;46.31;100487.91;4976168;28;20034;-78
2023/01/24 06:42:49;;;;;;;7.10;5.13;;;;;;;14.52;46.35;100487.03;4974938;28;20035;-78
2023/01/24 06:45:15;;;;;;;7.38;5.07;;;;;;;14.46;46.23;100488.88;4993036;28;20054;-78
2023/01/24 06:47:42;;;;;;;7.72;5.70;;;;;;;14.52;46.47;100494.91;4999085;28;20045;-77
2023/01/24 06:50:21;;;;;;;7.20;5.35;;;;;;;14.49;46.31;100496.69;4999209;28;20126;-77
2023/01/24 06:52:49;;;;;;;6.88;5.10;;;;;;;14.48;46.32;100500.22;5001608;28;20050;-78
2023/01/24 06:55:14;;;;;;;7.15;4.97;;;;;;;14.50;46.42;100500.19;4984149;28;20046;-78
2023/01/24 06:57:40;;;;;;;7.97;5.80;;;;;;;14.49;46.48;100506.34;4980968;28;20055;-78
2023/01/24 07:00:07;;;;;;;7.50;5.15;;;;;;;14.47;46.19;100509.00;4980754;28;20046;-77
2023/01/24 07:02:32;;;;;;;7.13;5.00;;;;;;;14.46;46.38;100507.25;4979557;28;20031;-77
2023/01/24 07:04:57;;;;;;;7.63;5.60;;;;;;;14.47;46.32;100513.34;4993125;28;20156;-78
2023/01/24 07:07:23;;;;;;;7.13;5.65;;;;;;;14.46;46.35;100507.25;4997760;28;20026;-76
2023/01/24 07:09:48;;;;;;;7.47;4.95;;;;;;;14.45;46.28;100500.28;4997350;28;20030;-78
2023/01/24 07:12:14;;;;;;;7.85;5.53;;;;;;;14.46;46.49;100502.00;4981974;28;20030;-76
2023/01/24 07:14:39;;;;;;;6.63;5.00;;;;;;;14.47;46.27;100503.75;4988205;28;20026;-78
2023/01/24 07:17:05;;;;;;;8.00;5.25;;;;;;;14.45;46.58;100509.91;4993246;28;20041;-78
2023/01/24 07:19:31;;;;;;;7.72;5.43;;;;;;;14.50;46.46;100515.94;4995780;28;20025;-78
2023/01/24 07:21:56;;;;;;;7.72;5.68;;;;;;;14.43;46.29;100515.19;4996163;28;20046;-77
2023/01/24 07:24:27;;;;;;;8.15;5.75;;;;;;;14.46;46.22;100527.38;4996058;28;20028;-78
2023/01/24 07:26:53;;;;;;;7.13;5.32;;;;;;;14.45;46.29;100526.53;4995715;28;20495;-77
2023/01/24 07:29:19;;;;;;;7.75;5.70;;;;;;;14.43;46.21;100530.09;4995915;28;20029;-77
2023/01/24 07:31:45;;;;;;;6.75;5.43;;;;;;;14.44;46.41;100532.66;4995822;28;20082;-77
2023/01/24 07:34:13;;;;;;;7.53;5.47;;;;;;;14.44;46.43;100537.06;4987992;28;20027;-78
2023/01/24 07:36:41;;;;;;;7.25;5.32;;;;;;;14.42;46.37;100541.47;4974709;28;20037;-77
2023/01/24 07:39:07;;;;;;;7.13;5.38;;;;;;;14.43;46.52;100538.81;4975615;28;20027;-78
2023/01/24 07:41:32;;;;;;;8.07;5.72;;;;;;;14.42;46.23;100549.34;4975821;28;20504;-77
2023/01/24 07:43:58;;;;;;;7.85;5.50;;;;;;;14.43;46.52;100543.22;4980659;28;20029;-78
2023/01/24 07:46:24;;;;;;;7.57;5.45;;;;;;;14.42;46.36;100547.59;4994784;28;20105;-78
2023/01/24 07:48:49;;;;;;;7.68;5.70;;;;;;;14.44;46.51;100539.69;4993637;28;20117;-77
2023/01/24 07:51:14;;;;;;;8.10;5.72;;;;;;;14.42;46.31;100547.59;4995851;28;20057;-76
2023/01/24 07:53:40;;;;;;;7.05;4.97;;;;;;;14.45;46.29;100557.19;4991829;28;20099;-78
2023/01/24 07:56:06;;;;;;;7.82;5.55;;;;;;;14.42;46.25;100563.34;4975057;28;20031;-77
2023/01/24 07:58:31;;;;;;;7.88;5.53;;;;;;;14.42;46.36;100568.59;4974742;28;20027;-77
2023/01/24 08:00:57;;;;;;;8.18;5.70;;;;;;;14.43;46.37;100580.84;4974634;28;20035;-77
2023/01/24 08:03:23;;;;;;;7.55;5.57;;;;;;;14.40;46.24;100575.66;4974537;28;20082;-78
2023/01/24 08:05:48;;;;;;;8.02;5.75;;;;;;;14.43;46.18;100578.19;4993082;28;20551;-77
2023/01/24 08:08:22;;;;;;;7.90;5.80;;;;;;;14.42;46.38;100576.47;5110996;27;20926;-78
2023/01/24 08:10:48;;;;;;;8.02;6.00;;;;;;;14.37;46.11;100570.41;5143764;27;20038;-78
2023/01/24 08:13:13;;;;;;;8.52;5.72;;;;;;;14.39;46.34;100573.91;5110775;28;20043;-78
2023/01/24 08:15:39;;;;;;;9.13;5.47;;;;;;;14.39;46.45;100579.16;5110559;28;20031;-78
2023/01/24 08:18:04;;;;;;;7.88;5.80;;;;;;;14.41;46.30;100576.50;5110341;28;20039;-78
2023/01/24 08:20:31;;;;;;;7.90;5.82;;;;;;;14.39;46.45;100581.78;5110632;28;20031;-78
2023/01/24 08:22:57;;;;;;;7.60;5.53;;;;;;;14.39;46.26;100588.78;5110590;28;20075;-78
2023/01/24 08:25:22;;;;;;;7.82;5.68;;;;;;;14.41;46.19;100598.38;5110366;28;20119;-78
2023/01/24 08:27:48;;;;;;;8.18;5.43;;;;;;;14.39;46.08;100596.66;5110230;28;20110;-78
2023/01/24 08:30:13;;;;;;;7.65;5.55;;;;;;;14.39;46.46;100592.28;5110261;28;20135;-78
2023/01/24 08:32:39;;;;;;;9.00;6.20;;;;;;;14.39;46.50;100600.19;5110179;28;20035;-77
2023/01/24 08:35:04;;;;;;;7.00;5.43;;;;;;;14.40;46.35;100601.03;5110383;28;20023;-78
2023/01/24 08:37:30;;;;;;;7.05;5.45;;;;;;;14.38;46.26;100595.78;5110299;28;20036;-78
2023/01/24 08:39:56;;;;;;;8.02;5.78;;;;;;;14.39;46.34;100592.28;5110033;28;20024;-78
2023/01/24 08:42:22;;;;;;;8.18;5.97;;;;;;;14.37;46.26;100596.69;5110093;28;20080;-78
2023/01/24 08:44:48;;;;;;;7.18;5.38;;;;;;;14.35;46.31;100596.69;5110087;28;20502;-78
2023/01/24 08:47:13;;;;;;;7.50;5.55;;;;;;;14.37;46.15;100604.56;5109536;28;20027;-78
2023/01/24 08:49:39;;;;;;;8.18;5.63;;;;;;;14.38;46.27;100611.53;5109962;28;20028;-77
2023/01/24 08:52:04;;;;;;;8.70;5.60;;;;;;;14.38;46.35;100610.69;5109941;28;20582;-78
2023/01/24 08:54:35;;;;;;;7.03;5.45;;;;;;;14.38;46.11;100608.06;5109895;28;20027;-78
2023/01/24 08:57:06;;;;;;;7.30;5.20;;;;;;;14.41;46.26;100615.88;5109768;28;20028;-78
2023/01/24 08:59:32;;;;;;;8.63;5.70;;;;;;;14.41;46.32;100623.75;5109684;28;20096;-78
2023/01/24 09:01:57;;;;;;;7.22;5.35;;;;;;;14.39;46.28;100625.56;5109488;28;20422;-78
2023/01/24 09:04:23;;;;;;;7.88;5.93;;;;;;;14.42;46.26;100621.13;5109545;28;20024;-78
2023/01/24 09:06:50;;;;;;;8.23;5.85;;;;;;;14.40;46.17;100622.91;5109572;28;20129;-78
2023/01/24 09:09:16;;;;;;;7.88;5.50;;;;;;;14.38;46.24;100624.69;5107785;28;20042;-78
2023/01/24 09:11:41;;;;;;;7.03;5.30;;;;;;;14.39;46.27;100626.44;5109252;28;20024;-78
2023/01/24 09:14:07;;;;;;;7.50;5.60;;;;;;;14.39;46.33;100636.94;5109354;28;20027;-78
2023/01/24 09:16:32;;;;;;;7.82;5.63;;;;;;;14.39;46.14;100642.19;5109112;28;20036;-78
2023/01/24 09:18:58;;;;;;;7.75;5.78;;;;;;;14.39;46.45;100641.31;5099905;28;20473;-78
2023/01/24 09:21:23;;;;;;;7.55;6.05;;;;;;;14.38;46.21;100626.44;5095820;28;20032;-78
2023/01/24 09:23:48;;;;;;;8.18;5.85;;;;;;;14.37;46.32;100622.94;5095643;28;20032;-78
2023/01/24 09:26:14;;;;;;;8.93;5.50;;;;;;;14.36;46.15;100615.97;5095483;28;20028;-78
2023/01/24 09:28:40;;;;;;;8.60;5.97;;;;;;;14.38;45.90;100624.69;5094428;28;20122;-78
2023/01/24 09:31:08;;;;;;;8.00;5.93;;;;;;;14.36;46.11;100621.22;5095343;28;20061;-78
2023/01/24 09:33:34;;;;;;;6.93;5.45;;;;;;;14.39;46.20;100626.44;5095624;28;20107;-78
2023/01/24 09:36:02;;;;;;;7.72;5.47;;;;;;;14.40;46.25;100636.03;5095588;28;20039;-77
2023/01/24 09:38:31;;;;;;;8.27;5.90;;;;;;;14.40;46.23;100649.19;5095610;28;20396;-78
2023/01/24 09:40:56;;;;;;;9.10;6.35;;;;;;;14.40;46.28;100654.44;5095525;28;20028;-78
2023/01/24 09:43:38;;;;;;;7.03;5.25;;;;;;;14.41;46.31;100656.16;5095374;28;20409;-78
2023/01/24 09:46:22;;;;;;;7.60;5.85;;;;;;;14.40;46.28;100659.69;5095490;28;20165;-78
2023/01/24 09:48:52;;;;;;;8.48;5.53;;;;;;;14.38;46.14;100666.69;5095542;28;20483;-78
2023/01/24 09:51:27;;;;;;;8.35;6.25;;;;;;;14.39;46.24;100671.06;5093555;28;20027;-77
2023/01/24 09:53:59;;;;;;;7.90;6.05;;;;;;;14.40;46.15;100672.81;5095127;28;20060;-78
2023/01/24 09:56:35;;;;;;;7.28;5.45;;;;;;;14.41;46.17;100686.78;5095523;28;20150;-78
2023/01/24 09:59:26;;;;;;;7.72;5.45;;;;;;;14.39;46.11;100688.56;5094819;28;20490;-78
2023/01/24 10:01:52;;;;;;;8.77;5.78;;;;;;;14.39;46.27;100684.22;5095324;28;20099;-78
2023/01/24 10:04:36;;;;;;;9.80;6.32;;;;;;;14.44;46.44;100685.00;5095143;28;20050;-77
2023/01/24 10:07:33;;;;;;;8.52;5.93;;;;;;;14.43;46.40;100701.63;5093243;28;20523;-78
2023/01/24 10:10:13;;;;;;;11.13;6.55;;;;;;;14.43;46.22;100690.28;5093271;28;20032;-78
2023/01/24 10:13:00;;;;;;;7.72;5.78;;;;;;;14.44;46.32;100703.38;5093169;28;20028;-78
2023/01/24 10:15:47;;;;;;;10.05;6.13;;;;;;;14.47;46.48;100705.97;5095417;28;20020;-78
2023/01/24 10:18:43;;;;;;;9.38;6.65;;;;;;;14.48;46.54;100710.31;5096069;28;20495;-78
2023/01/24 10:21:34;;;;;;;8.35;5.82;;;;;;;14.47;46.14;100719.09;5096491;28;20032;-79
2023/01/24 10:24:08;;;;;;;8.98;5.95;;;;;;;14.45;46.37;100715.63;5094997;28;20039;-77
2023/01/24 10:26:52;;;;;;;8.52;6.53;;;;;;;14.44;46.32;100719.13;5095799;28;20601;-78
2023/01/24 10:29:21;;;;;;;9.82;6.88;;;;;;;14.47;46.38;100720.84;5093604;28;20016;-78
2023/01/24 10:31:55;;;;;;;11.02;6.70;;;;;;;14.49;46.39;100716.47;5094489;28;20024;-78
2023/01/24 10:34:44;;;;;;;8.40;6.00;;;;;;;14.52;46.39;100718.19;5094653;28;20032;-77
2023/01/24 10:37:09;;;;;;;9.20;5.72;;;;;;;14.52;46.49;100715.56;5094150;28;20071;-77
2023/01/24 10:39:38;;;;;;;8.30;6.18;;;;;;;14.54;46.61;100721.63;5094313;28;20056;-78
2023/01/24 10:42:22;;;;;;;8.65;6.15;;;;;;;14.54;46.48;100708.50;5093918;28;20028;-78
2023/01/24 10:44:48;;;;;;;8.77;5.60;;;;;;;14.56;46.64;100714.59;5073868;28;20020;-78
2023/01/24 10:47:32;;;;;;;8.65;5.28;;;;;;;14.53;46.37;100699.75;5073817;28;20024;-77
2023/01/24 10:50:04;;;;;;;8.65;5.93;;;;;;;14.54;46.43;100698.00;5073767;28;20024;-77
2023/01/24 10:52:29;;;;;;;8.18;5.63;;;;;;;14.55;46.44;100705.00;5074770;28;20103;-77
2023/01/24 10:55:01;;;;;;;7.80;6.18;;;;;;;14.58;46.47;100704.97;5094052;28;20024;-77
2023/01/24 10:57:43;;;;;;;8.07;5.97;;;;;;;14.60;46.71;100693.53;5092189;28;20024;-77
2023/01/24 11:00:14;;;;;;;8.73;6.47;;;;;;;14.61;46.63;100703.16;5093387;28;20043;-77
2023/01/24 11:02:40;;;;;;;8.77;6.35;;;;;;;14.60;46.47;100698.78;5093755;28;20024;-78
2023/01/24 11:05:10;;;;;;;7.35;5.85;;;;;;;14.61;46.50;100704.91;5094010;28;20031;-77
2023/01/24 11:07:40;;;;;;;7.85;5.85;;;;;;;14.62;46.46;100706.63;5093814;28;20063;-78
2023/01/24 11:10:15;;;;;;;8.95;6.63;;;;;;;14.65;46.57;100680.34;5092865;28;20024;-78
2023/01/24 11:13:25;;;;;;;7.47;5.57;;;;;;;14.65;46.52;100682.94;5099469;28;20039;-77
2023/01/24 11:16:16;;;;;;;7.57;5.70;;;;;;;14.65;46.55;100680.34;5059318;28;20108;-77
2023/01/24 11:19:04;;;;;;;9.13;6.00;;;;;;;14.67;46.58;100688.19;5052670;28;20084;-78
2023/01/24 11:21:31;;;;;;;7.55;5.85;;;;;;;14.66;46.57;100686.47;5058465;28;20052;-78
2023/01/24 11:24:09;;;;;;;8.27;5.75;;;;;;;14.66;46.26;100675.97;5058754;28;20047;-78
2023/01/24 11:26:52;;;;;;;8.20;5.70;;;;;;;14.68;46.62;100669.75;5057699;28;20664;-77
2023/01/24 11:29:18;;;;;;;8.57;5.63;;;;;;;14.67;46.51;100665.41;5056777;28;20072;-77
2023/01/24 11:31:47;;;;;;;7.82;5.78;;;;;;;14.68;46.41;100659.25;5037804;28;20025;-78
2023/01/24 11:34:35;;;;;;;8.85;5.68;;;;;;;14.69;46.51;100655.75;5053002;28;20025;-79
2023/01/24 11:37:01;;;;;;;9.20;5.97;;;;;;;14.70;46.42;100667.13;5053016;28;20025;-78
2023/01/24 11:39:59;;;;;;;7.80;5.90;;;;;;;14.71;46.62;100674.97;5051236;28;20040;-78
2023/01/24 11:42:41;;;;;;;7.82;5.80;;;;;;;14.72;46.39;100674.09;5051834;28;20399;-78
2023/01/24 11:45:21;;;;;;;8.23;6.15;;;;;;;14.75;46.66;100662.69;5032086;28;20037;-77
2023/01/24 11:48:17;;;;;;;9.20;5.57;;;;;;;14.76;46.64;100662.69;5031517;28;20076;-78
2023/01/24 11:51:08;;;;;;;7.40;5.28;;;;;;;14.77;46.79;100656.53;5031649;28;20030;-78
2023/01/24 11:53:46;;;;;;;9.27;5.63;;;;;;;14.79;46.43;100653.00;5082508;28;20099;-77
2023/01/24 11:56:20;;;;;;;7.20;5.22;;;;;;;14.81;46.54;100653.88;5093131;28;20514;-77
2023/01/24 11:59:20;;;;;;;6.75;5.30;;;;;;;14.80;46.61;100641.59;5093250;28;20035;-78
2023/01/24 12:02:03;;;;;;;7.13;5.30;;;;;;;14.80;46.48;100642.47;5093089;28;20391;-78
2023/01/24 12:04:47;;;;;;;7.75;5.72;;;;;;;14.80;46.37;100636.34;5092964;28;20110;-78
2023/01/24 12:07:18;;;;;;;7.53;5.80;;;;;;;14.82;46.72;100640.66;5092770;28;20063;-78
2023/01/24 12:09:52;;;;;;;7.30;5.47;;;;;;;14.83;46.41;100636.28;5092631;28;20036;-78
2023/01/24 12:12:46;;;;;;;7.13;4.97;;;;;;;14.84;46.54;100633.66;5092832;28;20032;-78